createdAt,value
2018-07-13T00:03:03.111Z,6.30
2018-07-13T00:07:59.869Z,5.37
2018-07-13T00:12:56.871Z,6.60
2018-07-13T00:17:53.659Z,6.77
2018-07-13T00:22:50.694Z,5.87
2018-07-13T00:27:47.462Z,6.63
2018-07-13T00:32:44.576Z,6.23
2018-07-13T00:42:45.631Z,5.67
2018-07-13T00:47:42.432Z,7.50
2018-07-13T00:52:39.623Z,6.20
2018-07-13T00:57:36.383Z,6.17
2018-07-13T01:02:33.463Z,7.13
2018-07-13T01:07:30.259Z,6.57
2018-07-13T01:12:27.179Z,6.53
2018-07-13T01:17:25.130Z,7.13
2018-07-13T01:22:22.414Z,6.00
2018-07-13T01:27:19.873Z,6.63
2018-07-13T01:32:17.060Z,8.10
2018-07-13T01:37:14.117Z,7.40
2018-07-13T01:42:11.602Z,6.63
2018-07-13T01:47:08.432Z,7.63
2018-07-13T01:52:05.554Z,7.30
2018-07-13T01:57:02.375Z,7.93
2018-07-13T02:01:59.694Z,8.90
2018-07-13T02:06:56.532Z,8.00
2018-07-13T02:11:53.677Z,7.77
2018-07-13T02:16:50.462Z,7.80
2018-07-13T02:21:47.518Z,8.50
2018-07-13T02:26:44.263Z,8.40
2018-07-13T02:31:42.041Z,7.63
2018-07-13T02:36:38.834Z,7.33
2018-07-13T02:41:35.884Z,8.10
2018-07-13T02:46:32.876Z,8.10
2018-07-13T02:51:30.289Z,8.13
2018-07-13T02:56:27.075Z,8.90
2018-07-13T03:01:24.282Z,8.37
2018-07-13T03:06:21.017Z,8.07
2018-07-13T03:11:18.045Z,8.30
2018-07-13T03:16:14.795Z,9.07
2018-07-13T03:21:11.769Z,12.00
2018-07-13T03:26:08.559Z,8.90
2018-07-13T03:31:05.793Z,10.30
2018-07-13T03:36:02.762Z,9.17
2018-07-13T03:40:59.829Z,9.93
2018-07-13T03:45:56.639Z,7.93
2018-07-13T03:50:53.665Z,8.37
2018-07-13T03:55:50.823Z,8.67
2018-07-13T04:00:47.613Z,10.93
2018-07-13T04:05:44.737Z,8.67
2018-07-13T04:10:41.847Z,9.47
2018-07-13T04:15:38.883Z,9.50
2018-07-13T04:20:35.711Z,9.33
2018-07-13T04:25:32.893Z,10.37
2018-07-13T04:30:29.706Z,10.03
2018-07-13T04:35:27.534Z,10.10
2018-07-13T04:40:24.350Z,9.23
2018-07-13T04:45:21.460Z,9.20
2018-07-13T04:50:18.650Z,9.47
2018-07-13T04:55:15.693Z,10.30
2018-07-13T05:00:12.584Z,17.27
2018-07-13T05:05:09.806Z,11.50
2018-07-13T05:10:06.879Z,10.43
2018-07-13T05:15:04.866Z,11.23
2018-07-13T05:20:01.643Z,10.40
2018-07-13T05:24:59.312Z,9.93
2018-07-13T05:29:56.150Z,10.40
2018-07-13T05:34:53.330Z,12.40
2018-07-13T05:39:50.666Z,11.80
2018-07-13T05:44:47.791Z,11.53
2018-07-13T05:49:44.929Z,11.30
2018-07-13T05:54:41.852Z,12.83
2018-07-13T05:59:39.190Z,11.07
2018-07-13T06:04:36.067Z,12.00
2018-07-13T06:09:33.306Z,13.20
2018-07-13T06:14:30.031Z,10.87
2018-07-13T06:19:27.128Z,10.53
2018-07-13T06:24:24.038Z,9.43
2018-07-13T06:29:21.286Z,9.77
2018-07-13T06:34:18.068Z,11.20
2018-07-13T06:39:15.190Z,13.77
2018-07-13T06:44:13.188Z,11.13
2018-07-13T06:49:10.299Z,8.57
2018-07-13T06:54:07.272Z,8.57
2018-07-13T06:59:07.650Z,13.43
2018-07-13T07:04:37.648Z,8.50
2018-07-13T07:09:34.743Z,9.93
2018-07-13T07:14:31.533Z,13.32
2018-07-13T07:19:28.687Z,11.33
2018-07-13T07:24:25.476Z,12.28
2018-07-13T07:29:22.527Z,9.15
2018-07-13T07:34:19.284Z,7.45
2018-07-13T07:39:16.309Z,6.67
2018-07-13T07:44:14.167Z,8.73
2018-07-13T07:49:11.465Z,9.18
2018-07-13T07:54:08.296Z,5.95
2018-07-13T07:59:05.291Z,12.10
2018-07-13T08:04:02.104Z,6.65
2018-07-13T08:08:59.314Z,6.78
2018-07-13T08:13:56.227Z,6.42
2018-07-13T08:18:53.365Z,9.25
2018-07-13T08:23:50.225Z,6.45
2018-07-13T08:28:47.482Z,5.80
2018-07-13T08:33:44.540Z,6.03
2018-07-13T08:38:41.364Z,6.45
2018-07-13T08:43:39.579Z,10.35
2018-07-13T08:48:37.381Z,5.97
2018-07-13T08:53:34.245Z,10.25
2018-07-13T08:58:31.817Z,5.55
2018-07-13T09:03:28.616Z,5.28
2018-07-13T09:08:25.720Z,5.60
2018-07-13T09:13:22.535Z,7.20
2018-07-13T09:18:19.576Z,5.70
2018-07-13T09:23:16.412Z,6.22
2018-07-13T09:28:13.365Z,5.65
2018-07-13T09:33:10.181Z,7.03
2018-07-13T09:38:07.514Z,5.78
2018-07-13T09:43:04.215Z,5.00
2018-07-13T09:48:01.218Z,6.20
2018-07-13T09:52:58.100Z,5.42
2018-07-13T09:57:55.969Z,5.83
2018-07-13T10:02:52.724Z,6.55
2018-07-13T10:07:50.111Z,5.33
2018-07-13T10:12:46.959Z,7.10
2018-07-13T10:17:44.053Z,5.85
2018-07-13T10:22:40.842Z,4.72
2018-07-13T10:27:38.572Z,2.70
2018-07-13T10:32:35.423Z,3.70
2018-07-13T10:37:32.608Z,3.92
2018-07-13T10:42:29.492Z,3.90
2018-07-13T10:47:26.521Z,4.35
2018-07-13T10:52:23.323Z,3.40
2018-07-13T10:57:20.333Z,4.08
2018-07-13T11:02:17.495Z,3.17
2018-07-13T11:07:14.254Z,4.08
2018-07-13T11:12:11.926Z,4.62
2018-07-13T11:17:08.705Z,6.30
2018-07-13T11:22:05.884Z,3.58
2018-07-13T11:27:03.033Z,3.17
2018-07-13T11:31:59.885Z,3.25
2018-07-13T11:36:56.788Z,6.05
2018-07-13T11:41:53.607Z,4.92
2018-07-13T11:46:51.084Z,6.83
2018-07-13T11:51:47.910Z,4.83
2018-07-13T11:56:44.928Z,4.28
2018-07-13T12:01:41.734Z,5.40
2018-07-13T12:06:38.750Z,18.65
2018-07-13T12:11:35.710Z,4.10
2018-07-13T12:16:32.840Z,3.47
2018-07-13T12:21:29.659Z,4.45
2018-07-13T12:26:26.689Z,3.22
2018-07-13T12:31:23.477Z,9.73
2018-07-13T12:36:20.943Z,4.60
2018-07-13T12:41:17.757Z,4.40
2018-07-13T12:46:15.253Z,5.40
2018-07-13T12:51:12.041Z,7.85
2018-07-13T12:56:09.316Z,7.53
2018-07-13T13:01:06.137Z,4.70
2018-07-13T13:06:03.229Z,5.78
2018-07-13T13:11:00.134Z,3.35
2018-07-13T13:15:57.126Z,3.77
2018-07-13T13:20:53.921Z,6.05
2018-07-13T13:25:50.949Z,7.80
2018-07-13T13:30:48.565Z,3.92
2018-07-13T13:35:45.599Z,5.58
2018-07-13T13:40:42.450Z,3.10
2018-07-13T13:45:39.293Z,4.30
2018-07-13T13:50:37.388Z,5.87
2018-07-13T13:55:34.701Z,6.58
2018-07-13T14:00:31.656Z,2.95
2018-07-13T14:05:28.790Z,4.95
2018-07-13T14:10:25.523Z,5.12
2018-07-13T14:15:22.821Z,2.65
2018-07-13T14:20:19.720Z,5.40
2018-07-13T14:25:16.848Z,4.37
2018-07-13T14:30:13.643Z,2.72
2018-07-13T14:35:10.825Z,5.67
2018-07-13T14:40:07.694Z,4.42
2018-07-13T14:45:04.915Z,4.25
2018-07-13T14:50:01.658Z,3.30
2018-07-13T14:55:00.065Z,5.25
2018-07-13T14:59:56.853Z,14.20
2018-07-13T15:04:53.905Z,5.20
2018-07-13T15:09:51.050Z,5.08
2018-07-13T15:14:47.811Z,5.45
2018-07-13T15:19:44.959Z,5.72
2018-07-13T15:24:41.788Z,2.67
2018-07-13T15:29:39.421Z,5.33
2018-07-13T15:34:36.158Z,9.28
2018-07-13T15:39:33.222Z,6.65
2018-07-13T15:44:29.996Z,9.18
2018-07-13T15:49:27.147Z,10.75
2018-07-13T15:54:23.931Z,3.37
2018-07-13T15:59:21.578Z,5.08
2018-07-13T16:04:18.703Z,5.37
2018-07-13T16:09:15.927Z,5.15
2018-07-13T16:14:12.765Z,6.80
2018-07-13T16:19:09.867Z,6.20
2018-07-13T16:24:06.776Z,8.05
2018-07-13T16:29:03.980Z,4.33
2018-07-13T16:34:00.848Z,4.75
2018-07-13T16:38:57.963Z,8.38
2018-07-13T16:43:54.978Z,5.67
2018-07-13T16:48:51.804Z,5.10
2018-07-13T16:53:49.187Z,4.45
2018-07-13T16:58:45.952Z,6.10
2018-07-13T17:03:43.111Z,5.20
2018-07-13T17:08:39.945Z,4.65
2018-07-13T17:13:36.897Z,5.42
2018-07-13T17:18:33.630Z,5.85
2018-07-13T17:23:30.461Z,6.55
2018-07-13T17:28:27.264Z,6.72
2018-07-13T17:33:24.549Z,8.88
2018-07-13T17:38:21.326Z,10.40
2018-07-13T17:43:18.250Z,13.05
2018-07-13T17:48:14.973Z,9.80
2018-07-13T17:53:11.677Z,11.28
2018-07-13T17:58:08.425Z,8.05
2018-07-13T18:03:05.218Z,12.40
2018-07-13T18:08:02.074Z,23.50
2018-07-13T18:12:59.137Z,26.40
2018-07-13T18:17:55.679Z,21.07
2018-07-13T18:22:52.521Z,15.65
2018-07-13T18:27:49.273Z,12.88
2018-07-13T18:32:46.368Z,6.85
2018-07-13T18:37:43.322Z,4.80
2018-07-13T18:42:40.383Z,27.42
2018-07-13T18:47:37.451Z,23.73
2018-07-13T18:52:34.411Z,10.68
2018-07-13T18:57:31.137Z,12.53
2018-07-13T19:02:28.232Z,7.15
2018-07-13T19:07:25.977Z,5.05
2018-07-13T19:12:23.191Z,6.53
2018-07-13T19:17:19.911Z,5.47
2018-07-13T19:22:16.998Z,5.22
2018-07-13T19:27:13.737Z,7.08
2018-07-13T19:32:11.020Z,8.40
2018-07-13T19:37:07.734Z,5.72
2018-07-13T19:42:04.955Z,7.90
2018-07-13T19:47:02.074Z,8.30
2018-07-13T19:51:59.590Z,8.13
2018-07-13T19:56:56.534Z,13.05
2018-07-13T20:01:53.200Z,10.05
2018-07-13T20:06:50.275Z,9.55
2018-07-13T20:11:47.196Z,12.37
2018-07-13T20:16:44.486Z,8.38
2018-07-13T20:21:41.222Z,7.55
2018-07-13T20:26:38.217Z,8.78
2018-07-13T20:31:35.443Z,6.65
2018-07-13T20:36:32.432Z,7.35
2018-07-13T20:41:29.239Z,7.17
2018-07-13T20:46:26.269Z,6.92
2018-07-13T20:51:22.784Z,8.38
2018-07-13T20:56:19.531Z,7.92
2018-07-13T21:01:16.334Z,6.97
2018-07-13T21:06:13.305Z,8.58
2018-07-13T21:11:10.020Z,11.18
2018-07-13T21:16:07.125Z,8.13
2018-07-13T21:21:03.858Z,9.70
2018-07-13T21:26:01.141Z,8.80
2018-07-13T21:30:57.865Z,8.28
2018-07-13T21:35:54.969Z,8.63
2018-07-13T21:40:51.690Z,9.25
2018-07-13T21:45:48.812Z,9.33
2018-07-13T21:50:45.480Z,11.53
2018-07-13T21:55:42.409Z,8.77
2018-07-13T22:00:39.198Z,8.08
2018-07-13T22:05:36.338Z,8.30
2018-07-13T22:10:33.105Z,8.03
2018-07-13T22:15:30.054Z,9.30
2018-07-13T22:20:26.792Z,11.45
2018-07-13T22:25:23.964Z,8.53
2018-07-13T22:30:20.845Z,8.13
2018-07-13T22:35:17.897Z,8.83
2018-07-13T22:40:14.665Z,14.47
2018-07-13T22:45:11.623Z,10.20
2018-07-13T22:50:08.347Z,15.00
2018-07-13T22:55:05.423Z,10.20
2018-07-13T23:00:02.056Z,9.60
2018-07-13T23:04:59.075Z,9.87
2018-07-13T23:09:55.812Z,8.97
2018-07-13T23:14:52.767Z,10.23
2018-07-13T23:19:49.676Z,10.33
2018-07-13T23:24:46.592Z,9.73
2018-07-13T23:29:43.313Z,10.10
2018-07-13T23:34:40.329Z,11.17
2018-07-13T23:39:37.064Z,9.57
2018-07-13T23:44:34.046Z,9.00
2018-07-13T23:49:30.792Z,10.37
2018-07-13T23:54:27.868Z,10.73
2018-07-13T23:59:24.792Z,10.33
